sensor_id;sensor_type;location;lat;lon;timestamp;pressure;altitude;pressure_sealevel;temperature;humidity
52855;BME280;38719;51.418;7.286;2023-07-30T00:00:06;99208.34;;;19.40;75.18
52855;BME280;38719;51.418;7.286;2023-07-30T00:02:34;99210.81;;;19.13;75.17
52855;BME280;38719;51.418;7.286;2023-07-30T00:05:01;99206.09;;;19.06;74.94
52855;BME280;38719;51.418;7.286;2023-07-30T00:07:29;99210.34;;;19.18;73.96
52855;BME280;38719;51.418;7.286;2023-07-30T00:09:56;99205.53;;;18.92;74.74
52855;BME280;38719;51.418;7.286;2023-07-30T00:12:24;99199.03;;;19.14;74.09
52855;BME280;38719;51.418;7.286;2023-07-30T00:14:53;99206.09;;;19.06;72.98
52855;BME280;38719;51.418;7.286;2023-07-30T00:17:21;99212.03;;;18.90;73.76
52855;BME280;38719;51.418;7.286;2023-07-30T00:19:48;99202.13;;;19.00;72.13
52855;BME280;38719;51.418;7.286;2023-07-30T00:22:16;99215.97;;;18.76;73.25
52855;BME280;38719;51.418;7.286;2023-07-30T00:24:45;99199.28;;;18.92;71.66
52855;BME280;38719;51.418;7.286;2023-07-30T00:27:12;99213.72;;;18.81;72.57
52855;BME280;38719;51.418;7.286;2023-07-30T00:29:48;99203.50;;;18.84;71.92
52855;BME280;38719;51.418;7.286;2023-07-30T00:32:17;99202.94;;;18.81;70.93
52855;BME280;38719;51.418;7.286;2023-07-30T00:34:45;99200.16;;;18.92;71.46
52855;BME280;38719;51.418;7.286;2023-07-30T00:37:12;99196.41;;;18.74;70.76
52855;BME280;38719;51.418;7.286;2023-07-30T00:39:40;99203.59;;;18.53;72.18
52855;BME280;38719;51.418;7.286;2023-07-30T00:42:08;99217.22;;;18.11;74.96
52855;BME280;38719;51.418;7.286;2023-07-30T00:44:35;99207.94;;;18.35;73.53
52855;BME280;38719;51.418;7.286;2023-07-30T00:47:03;99209.84;;;18.54;72.62
52855;BME280;38719;51.418;7.286;2023-07-30T00:49:33;99201.59;;;18.46;72.41
52855;BME280;38719;51.418;7.286;2023-07-30T00:52:01;99207.97;;;18.45;73.32
52855;BME280;38719;51.418;7.286;2023-07-30T00:54:29;99213.50;;;18.02;75.60
52855;BME280;38719;51.418;7.286;2023-07-30T00:56:56;99212.00;;;17.88;76.69
52855;BME280;38719;51.418;7.286;2023-07-30T00:59:24;99214.78;;;17.98;77.07
52855;BME280;38719;51.418;7.286;2023-07-30T01:01:52;99212.72;;;18.12;75.68
52855;BME280;38719;51.418;7.286;2023-07-30T01:04:19;99215.78;;;18.38;74.29
52855;BME280;38719;51.418;7.286;2023-07-30T01:06:48;99213.09;;;18.07;76.12
52855;BME280;38719;51.418;7.286;2023-07-30T01:09:16;99213.31;;;17.94;76.94
52855;BME280;38719;51.418;7.286;2023-07-30T01:11:44;99217.19;;;18.01;77.08
52855;BME280;38719;51.418;7.286;2023-07-30T01:14:13;99216.19;;;18.33;74.58
52855;BME280;38719;51.418;7.286;2023-07-30T01:16:42;99214.81;;;18.49;74.39
52855;BME280;38719;51.418;7.286;2023-07-30T01:19:09;99218.31;;;18.40;74.83
52855;BME280;38719;51.418;7.286;2023-07-30T01:21:38;99221.47;;;18.55;74.50
52855;BME280;38719;51.418;7.286;2023-07-30T01:24:06;99223.72;;;18.40;74.37
52855;BME280;38719;51.418;7.286;2023-07-30T01:26:39;99227.25;;;18.40;73.55
52855;BME280;38719;51.418;7.286;2023-07-30T01:29:12;99224.84;;;18.37;72.87
52855;BME280;38719;51.418;7.286;2023-07-30T01:31:43;99230.41;;;18.45;73.39
52855;BME280;38719;51.418;7.286;2023-07-30T01:34:11;99231.03;;;18.28;73.47
52855;BME280;38719;51.418;7.286;2023-07-30T01:36:41;99226.69;;;18.36;72.59
52855;BME280;38719;51.418;7.286;2023-07-30T01:39:09;99239.16;;;18.37;72.87
52855;BME280;38719;51.418;7.286;2023-07-30T01:41:37;99241.75;;;18.39;71.78
52855;BME280;38719;51.418;7.286;2023-07-30T01:44:05;99246.31;;;18.17;73.00
52855;BME280;38719;51.418;7.286;2023-07-30T01:46:33;99246.56;;;18.04;73.31
52855;BME280;38719;51.418;7.286;2023-07-30T01:49:01;99241.63;;;18.10;73.48
52855;BME280;38719;51.418;7.286;2023-07-30T01:51:28;99243.53;;;18.29;72.32
52855;BME280;38719;51.418;7.286;2023-07-30T01:53:57;99239.81;;;18.20;72.31
52855;BME280;38719;51.418;7.286;2023-07-30T01:56:25;99244.56;;;17.85;74.08
52855;BME280;38719;51.418;7.286;2023-07-30T01:58:52;99244.72;;;17.84;74.52
52855;BME280;38719;51.418;7.286;2023-07-30T02:01:21;99241.22;;;17.93;74.57
52855;BME280;38719;51.418;7.286;2023-07-30T02:03:49;99245.75;;;17.93;73.68
52855;BME280;38719;51.418;7.286;2023-07-30T02:06:17;99243.34;;;17.68;74.86
52855;BME280;38719;51.418;7.286;2023-07-30T02:08:44;99255.75;;;17.60;75.57
52855;BME280;38719;51.418;7.286;2023-07-30T02:11:13;99249.53;;;17.05;78.18
52855;BME280;38719;51.418;7.286;2023-07-30T02:13:41;99245.75;;;16.85;79.41
52855;BME280;38719;51.418;7.286;2023-07-30T02:16:08;99253.41;;;17.13;78.67
52855;BME280;38719;51.418;7.286;2023-07-30T02:18:36;99239.59;;;17.60;76.47
52855;BME280;38719;51.418;7.286;2023-07-30T02:21:04;99244.97;;;17.38;77.28
52855;BME280;38719;51.418;7.286;2023-07-30T02:23:32;99239.34;;;17.42;76.93
52855;BME280;38719;51.418;7.286;2023-07-30T02:25:59;99240.06;;;17.86;75.10
52855;BME280;38719;51.418;7.286;2023-07-30T02:28:28;99256.91;;;17.88;73.68
52855;BME280;38719;51.418;7.286;2023-07-30T02:30:56;99243.69;;;17.96;73.22
52855;BME280;38719;51.418;7.286;2023-07-30T02:33:23;99244.13;;;18.01;73.36
52855;BME280;38719;51.418;7.286;2023-07-30T02:35:51;99246.13;;;17.88;73.48
52855;BME280;38719;51.418;7.286;2023-07-30T02:38:18;99245.88;;;17.91;72.99
52855;BME280;38719;51.418;7.286;2023-07-30T02:40:46;99248.66;;;18.01;73.49
52855;BME280;38719;51.418;7.286;2023-07-30T02:43:13;99248.47;;;17.71;74.78
52855;BME280;38719;51.418;7.286;2023-07-30T02:45:43;99248.09;;;17.55;75.63
52855;BME280;38719;51.418;7.286;2023-07-30T02:48:10;99246.56;;;17.62;74.88
52855;BME280;38719;51.418;7.286;2023-07-30T02:50:38;99247.72;;;17.69;75.31
52855;BME280;38719;51.418;7.286;2023-07-30T02:53:05;99245.63;;;17.94;74.37
52855;BME280;38719;51.418;7.286;2023-07-30T02:55:33;99248.47;;;17.71;73.84
52855;BME280;38719;51.418;7.286;2023-07-30T02:58:01;99248.22;;;17.75;74.33
52855;BME280;38719;51.418;7.286;2023-07-30T03:00:28;99250.50;;;18.00;72.81
52855;BME280;38719;51.418;7.286;2023-07-30T03:02:57;99251.22;;;18.02;72.40
52855;BME280;38719;51.418;7.286;2023-07-30T03:05:26;99256.16;;;17.97;73.07
52855;BME280;38719;51.418;7.286;2023-07-30T03:07:53;99256.91;;;17.88;73.49
52855;BME280;38719;51.418;7.286;2023-07-30T03:10:21;99252.47;;;17.98;72.22
52855;BME280;38719;51.418;7.286;2023-07-30T03:12:49;99257.78;;;18.10;71.92
52855;BME280;38719;51.418;7.286;2023-07-30T03:15:16;99260.47;;;18.10;71.67
52855;BME280;38719;51.418;7.286;2023-07-30T03:17:44;99257.44;;;18.03;72.18
52855;BME280;38719;51.418;7.286;2023-07-30T03:20:13;99264.44;;;18.06;71.19
52855;BME280;38719;51.418;7.286;2023-07-30T03:22:40;99260.03;;;18.04;71.40
52855;BME280;38719;51.418;7.286;2023-07-30T03:25:08;99261.75;;;18.06;71.45
52855;BME280;38719;51.418;7.286;2023-07-30T03:27:35;99262.66;;;17.73;72.93
52855;BME280;38719;51.418;7.286;2023-07-30T03:30:04;99257.34;;;17.83;71.86
52855;BME280;38719;51.418;7.286;2023-07-30T03:32:32;99260.47;;;17.88;71.25
52855;BME280;38719;51.418;7.286;2023-07-30T03:35:00;99266.94;;;17.76;71.71
52855;BME280;38719;51.418;7.286;2023-07-30T03:37:29;99262.25;;;17.57;73.58
52855;BME280;38719;51.418;7.286;2023-07-30T03:39:56;99261.94;;;17.71;71.30
52855;BME280;38719;51.418;7.286;2023-07-30T03:42:24;99270.53;;;17.44;72.54
52855;BME280;38719;51.418;7.286;2023-07-30T03:44:51;99275.91;;;17.65;71.97
52855;BME280;38719;51.418;7.286;2023-07-30T03:47:19;99270.00;;;17.71;71.13
52855;BME280;38719;51.418;7.286;2023-07-30T03:49:47;99264.94;;;17.78;71.56
52855;BME280;38719;51.418;7.286;2023-07-30T03:52:14;99263.56;;;17.84;70.98
52855;BME280;38719;51.418;7.286;2023-07-30T03:54:45;99266.47;;;17.71;71.22
52855;BME280;38719;51.418;7.286;2023-07-30T03:57:12;99275.75;;;17.88;70.96
52855;BME280;38719;51.418;7.286;2023-07-30T03:59:40;99278.81;;;17.73;70.41
52855;BME280;38719;51.418;7.286;2023-07-30T04:02:07;99280.84;;;17.81;71.07
52855;BME280;38719;51.418;7.286;2023-07-30T04:04:35;99278.81;;;17.95;70.57
52855;BME280;38719;51.418;7.286;2023-07-30T04:07:03;99277.03;;;17.84;70.35
52855;BME280;38719;51.418;7.286;2023-07-30T04:09:30;99286.00;;;17.73;71.19
52855;BME280;38719;51.418;7.286;2023-07-30T04:11:59;99279.19;;;17.69;71.60
52855;BME280;38719;51.418;7.286;2023-07-30T04:14:27;99288.59;;;17.75;71.37
52855;BME280;38719;51.418;7.286;2023-07-30T04:16:54;99288.19;;;17.58;71.02
52855;BME280;38719;51.418;7.286;2023-07-30T04:19:22;99281.50;;;17.52;71.87
52855;BME280;38719;51.418;7.286;2023-07-30T04:21:50;99279.72;;;17.42;72.47
52855;BME280;38719;51.418;7.286;2023-07-30T04:24:18;99280.47;;;17.32;72.41
52855;BME280;38719;51.418;7.286;2023-07-30T04:26:46;99278.84;;;17.41;72.79
52855;BME280;38719;51.418;7.286;2023-07-30T04:29:15;99287.00;;;17.51;72.04
52855;BME280;38719;51.418;7.286;2023-07-30T04:31:43;99286.69;;;17.65;71.69
52855;BME280;38719;51.418;7.286;2023-07-30T04:34:10;99288.69;;;17.52;72.19
52855;BME280;38719;51.418;7.286;2023-07-30T04:36:38;99279.78;;;17.72;71.46
52855;BME280;38719;51.418;7.286;2023-07-30T04:39:05;99277.78;;;17.53;71.44
52855;BME280;38719;51.418;7.286;2023-07-30T04:41:33;99278.22;;;17.70;71.50
52855;BME280;38719;51.418;7.286;2023-07-30T04:44:03;99279.34;;;17.67;71.65
52855;BME280;38719;51.418;7.286;2023-07-30T04:46:32;99281.97;;;17.79;71.06
52855;BME280;38719;51.418;7.286;2023-07-30T04:49:02;99281.44;;;17.85;71.14
52855;BME280;38719;51.418;7.286;2023-07-30T04:51:30;99282.38;;;17.95;70.50
52855;BME280;38719;51.418;7.286;2023-07-30T04:53:57;99291.44;;;17.94;70.60
52855;BME280;38719;51.418;7.286;2023-07-30T04:56:25;99284.31;;;17.93;70.91
52855;BME280;38719;51.418;7.286;2023-07-30T04:58:53;99289.97;;;17.90;71.10
52855;BME280;38719;51.418;7.286;2023-07-30T05:01:21;99285.16;;;17.94;70.40
52855;BME280;38719;51.418;7.286;2023-07-30T05:03:50;99294.00;;;17.75;71.61
52855;BME280;38719;51.418;7.286;2023-07-30T05:06:18;99289.00;;;17.70;72.09
52855;BME280;38719;51.418;7.286;2023-07-30T05:08:45;99289.59;;;17.73;71.69
52855;BME280;38719;51.418;7.286;2023-07-30T05:11:13;99292.44;;;17.82;71.87
52855;BME280;38719;51.418;7.286;2023-07-30T05:13:40;99299.91;;;17.68;71.28
52855;BME280;38719;51.418;7.286;2023-07-30T05:16:08;99293.41;;;17.71;71.68
52855;BME280;38719;51.418;7.286;2023-07-30T05:18:36;99298.44;;;17.64;72.39
52855;BME280;38719;51.418;7.286;2023-07-30T05:21:05;99288.91;;;17.60;72.92
52855;BME280;38719;51.418;7.286;2023-07-30T05:23:32;99288.53;;;17.86;72.05
52855;BME280;38719;51.418;7.286;2023-07-30T05:26:00;99288.94;;;18.02;71.05
52855;BME280;38719;51.418;7.286;2023-07-30T05:28:27;99291.28;;;18.17;70.87
52855;BME280;38719;51.418;7.286;2023-07-30T05:30:55;99289.56;;;18.16;70.65
52855;BME280;38719;51.418;7.286;2023-07-30T05:33:23;99293.00;;;18.18;70.17
52855;BME280;38719;51.418;7.286;2023-07-30T05:35:50;99285.13;;;18.05;70.91
52855;BME280;38719;51.418;7.286;2023-07-30T05:38:19;99281.38;;;17.96;71.33
52855;BME280;38719;51.418;7.286;2023-07-30T05:40:47;99290.25;;;17.87;71.33
52855;BME280;38719;51.418;7.286;2023-07-30T05:43:14;99289.47;;;17.96;70.88
52855;BME280;38719;51.418;7.286;2023-07-30T05:45:42;99287.28;;;18.11;70.76
52855;BME280;38719;51.418;7.286;2023-07-30T05:48:10;99283.28;;;18.06;70.94
52855;BME280;38719;51.418;7.286;2023-07-30T05:50:38;99283.00;;;18.09;70.86
52855;BME280;38719;51.418;7.286;2023-07-30T05:53:05;99282.16;;;18.08;70.88
52855;BME280;38719;51.418;7.286;2023-07-30T05:55:34;99284.53;;;18.01;70.97
52855;BME280;38719;51.418;7.286;2023-07-30T05:58:02;99289.13;;;17.89;71.23
52855;BME280;38719;51.418;7.286;2023-07-30T06:00:29;99285.69;;;17.87;71.80
52855;BME280;38719;51.418;7.286;2023-07-30T06:02:57;99294.03;;;17.84;71.33
52855;BME280;38719;51.418;7.286;2023-07-30T06:05:24;99291.84;;;17.78;71.59
52855;BME280;38719;51.418;7.286;2023-07-30T06:07:52;99278.47;;;17.88;71.49
52855;BME280;38719;51.418;7.286;2023-07-30T06:10:20;99284.56;;;17.90;71.21
52855;BME280;38719;51.418;7.286;2023-07-30T06:12:49;99292.44;;;17.82;71.27
52855;BME280;38719;51.418;7.286;2023-07-30T06:15:16;99298.13;;;17.79;71.57
52855;BME280;38719;51.418;7.286;2023-07-30T06:17:44;99301.56;;;17.69;71.20
52855;BME280;38719;51.418;7.286;2023-07-30T06:20:11;99295.75;;;17.64;71.50
52855;BME280;38719;51.418;7.286;2023-07-30T06:22:39;99293.50;;;17.48;72.10
52855;BME280;38719;51.418;7.286;2023-07-30T06:25:07;99296.19;;;17.48;72.02
52855;BME280;38719;51.418;7.286;2023-07-30T06:27:34;99302.63;;;17.57;72.06
52855;BME280;38719;51.418;7.286;2023-07-30T06:30:05;99302.31;;;17.71;71.56
52855;BME280;38719;51.418;7.286;2023-07-30T06:32:32;99304.94;;;17.83;71.07
52855;BME280;38719;51.418;7.286;2023-07-30T06:35:00;99314.44;;;17.98;70.96
52855;BME280;38719;51.418;7.286;2023-07-30T06:37:29;99314.06;;;17.70;71.42
52855;BME280;38719;51.418;7.286;2023-07-30T06:39:56;99319.13;;;17.64;71.31
52855;BME280;38719;51.418;7.286;2023-07-30T06:42:24;99329.16;;;17.62;72.01
52855;BME280;38719;51.418;7.286;2023-07-30T06:44:52;99338.28;;;17.70;71.57
52855;BME280;38719;51.418;7.286;2023-07-30T06:47:21;99336.06;;;17.76;71.36
52855;BME280;38719;51.418;7.286;2023-07-30T06:49:48;99333.63;;;17.72;71.68
52855;BME280;38719;51.418;7.286;2023-07-30T06:52:16;99335.78;;;17.58;71.87
52855;BME280;38719;51.418;7.286;2023-07-30T06:54:43;99328.09;;;17.53;71.86
52855;BME280;38719;51.418;7.286;2023-07-30T06:57:11;99335.41;;;17.62;72.01
52855;BME280;38719;51.418;7.286;2023-07-30T06:59:38;99337.22;;;17.62;71.77
52855;BME280;38719;51.418;7.286;2023-07-30T07:02:06;99339.28;;;17.69;71.38
52855;BME280;38719;51.418;7.286;2023-07-30T07:04:35;99342.91;;;17.80;71.09
52855;BME280;38719;51.418;7.286;2023-07-30T07:07:03;99341.97;;;17.91;70.98
52855;BME280;38719;51.418;7.286;2023-07-30T07:09:31;99344.66;;;17.69;71.46
52855;BME280;38719;51.418;7.286;2023-07-30T07:11:58;99338.38;;;17.80;70.97
52855;BME280;38719;51.418;7.286;2023-07-30T07:14:26;99346.59;;;17.79;71.21
52855;BME280;38719;51.418;7.286;2023-07-30T07:16:54;99341.13;;;17.90;71.05
52855;BME280;38719;51.418;7.286;2023-07-30T07:19:22;99342.50;;;17.96;70.56
52855;BME280;38719;51.418;7.286;2023-07-30T07:21:51;99349.94;;;17.92;71.05
52855;BME280;38719;51.418;7.286;2023-07-30T07:24:18;99343.38;;;17.85;71.33
52855;BME280;38719;51.418;7.286;2023-07-30T07:26:46;99347.63;;;17.87;70.90
52855;BME280;38719;51.418;7.286;2023-07-30T07:29:13;99351.22;;;17.77;71.04
52855;BME280;38719;51.418;7.286;2023-07-30T07:31:41;99361.69;;;17.70;71.94
52855;BME280;38719;51.418;7.286;2023-07-30T07:34:09;99356.38;;;17.80;71.52
52855;BME280;38719;51.418;7.286;2023-07-30T07:36:37;99364.97;;;17.73;71.77
52855;BME280;38719;51.418;7.286;2023-07-30T07:39:06;99365.81;;;17.74;71.47
52855;BME280;38719;51.418;7.286;2023-07-30T07:41:34;99366.69;;;17.75;71.34
52855;BME280;38719;51.418;7.286;2023-07-30T07:44:02;99364.47;;;17.80;71.37
52855;BME280;38719;51.418;7.286;2023-07-30T07:46:30;99361.25;;;17.86;71.42
52855;BME280;38719;51.418;7.286;2023-07-30T07:48:58;99364.03;;;17.96;71.09
52855;BME280;38719;51.418;7.286;2023-07-30T07:51:26;99367.94;;;17.92;71.01
52855;BME280;38719;51.418;7.286;2023-07-30T07:53:54;99365.34;;;18.01;70.70
52855;BME280;38719;51.418;7.286;2023-07-30T07:56:23;99374.28;;;18.02;70.42
52855;BME280;38719;51.418;7.286;2023-07-30T07:58:50;99373.88;;;18.07;70.75
52855;BME280;38719;51.418;7.286;2023-07-30T08:01:18;99371.34;;;17.94;70.72
52855;BME280;38719;51.418;7.286;2023-07-30T08:03:45;99361.69;;;17.91;71.28
52855;BME280;38719;51.418;7.286;2023-07-30T08:06:13;99372.31;;;18.04;71.19
52855;BME280;38719;51.418;7.286;2023-07-30T08:08:41;99372.81;;;18.19;71.24
52855;BME280;38719;51.418;7.286;2023-07-30T08:11:08;99373.63;;;18.10;70.64
52855;BME280;38719;51.418;7.286;2023-07-30T08:13:38;99377.22;;;18.20;70.67
52855;BME280;38719;51.418;7.286;2023-07-30T08:16:05;99374.00;;;18.26;70.64
52855;BME280;38719;51.418;7.286;2023-07-30T08:18:33;99374.00;;;18.26;69.87
52855;BME280;38719;51.418;7.286;2023-07-30T08:21:00;99374.56;;;18.51;69.61
52855;BME280;38719;51.418;7.286;2023-07-30T08:23:28;99375.47;;;18.61;69.39
52855;BME280;38719;51.418;7.286;2023-07-30T08:25:56;99374.13;;;18.77;69.23
52855;BME280;38719;51.418;7.286;2023-07-30T08:28:23;99371.88;;;18.51;69.52
52855;BME280;38719;51.418;7.286;2023-07-30T08:30:52;99372.50;;;18.33;69.87
52855;BME280;38719;51.418;7.286;2023-07-30T08:33:20;99368.47;;;18.49;70.05
52855;BME280;38719;51.418;7.286;2023-07-30T08:35:48;99364.16;;;18.67;69.97
52855;BME280;38719;51.418;7.286;2023-07-30T08:38:15;99367.59;;;18.79;69.48
52855;BME280;38719;51.418;7.286;2023-07-30T08:40:43;99362.84;;;18.93;68.63
52855;BME280;38719;51.418;7.286;2023-07-30T08:43:11;99370.22;;;18.91;68.51
52855;BME280;38719;51.418;7.286;2023-07-30T08:45:38;99362.78;;;18.83;68.66
52855;BME280;38719;51.418;7.286;2023-07-30T08:48:07;99365.47;;;18.83;68.32
52855;BME280;38719;51.418;7.286;2023-07-30T08:50:35;99379.19;;;18.91;68.45
52855;BME280;38719;51.418;7.286;2023-07-30T08:53:04;99366.78;;;18.89;68.23
52855;BME280;38719;51.418;7.286;2023-07-30T08:55:33;99378.41;;;18.89;68.67
52855;BME280;38719;51.418;7.286;2023-07-30T08:58:02;99381.03;;;19.00;68.48
52855;BME280;38719;51.418;7.286;2023-07-30T09:00:33;99388.47;;;19.18;68.21
52855;BME280;38719;51.418;7.286;2023-07-30T09:03:03;99387.66;;;19.27;67.78
52855;BME280;38719;51.418;7.286;2023-07-30T09:05:33;99380.41;;;19.28;67.85
52855;BME280;38719;51.418;7.286;2023-07-30T09:08:00;99375.72;;;19.40;68.15
52855;BME280;38719;51.418;7.286;2023-07-30T09:10:28;99368.66;;;19.58;66.94
52855;BME280;38719;51.418;7.286;2023-07-30T09:12:57;99370.31;;;19.30;67.60
52855;BME280;38719;51.418;7.286;2023-07-30T09:15:32;99386.25;;;19.53;67.73
52855;BME280;38719;51.418;7.286;2023-07-30T09:18:00;99381.97;;;19.40;66.96
52855;BME280;38719;51.418;7.286;2023-07-30T09:20:37;99383.97;;;19.38;67.73
52855;BME280;38719;51.418;7.286;2023-07-30T09:23:06;99386.81;;;19.56;67.26
52855;BME280;38719;51.418;7.286;2023-07-30T09:25:34;99394.50;;;19.51;67.52
52855;BME280;38719;51.418;7.286;2023-07-30T09:28:02;99399.06;;;19.80;67.29
52855;BME280;38719;51.418;7.286;2023-07-30T09:30:29;99391.72;;;19.92;66.67
52855;BME280;38719;51.418;7.286;2023-07-30T09:32:59;99401.50;;;20.22;65.79
52855;BME280;38719;51.418;7.286;2023-07-30T09:35:27;99391.09;;;20.27;64.97
52855;BME280;38719;51.418;7.286;2023-07-30T09:38:00;99392.81;;;20.28;64.93
52855;BME280;38719;51.418;7.286;2023-07-30T09:40:32;99402.16;;;20.34;64.46
52855;BME280;38719;51.418;7.286;2023-07-30T09:43:02;99395.63;;;20.27;63.91
52855;BME280;38719;51.418;7.286;2023-07-30T09:45:33;99407.91;;;20.21;63.61
52855;BME280;38719;51.418;7.286;2023-07-30T09:48:03;99402.06;;;20.26;63.86
52855;BME280;38719;51.418;7.286;2023-07-30T09:50:31;99408.44;;;20.35;63.72
52855;BME280;38719;51.418;7.286;2023-07-30T09:53:01;99406.38;;;20.56;63.28
52855;BME280;38719;51.418;7.286;2023-07-30T09:55:29;99413.91;;;20.62;62.92
52855;BME280;38719;51.418;7.286;2023-07-30T09:57:57;99412.50;;;20.78;62.56
52855;BME280;38719;51.418;7.286;2023-07-30T10:00:24;99413.47;;;20.67;61.06
52855;BME280;38719;51.418;7.286;2023-07-30T10:02:52;99406.56;;;20.92;62.45
52855;BME280;38719;51.418;7.286;2023-07-30T10:05:25;99396.09;;;21.07;61.08
52855;BME280;38719;51.418;7.286;2023-07-30T10:08:02;99397.56;;;21.02;59.00
52855;BME280;38719;51.418;7.286;2023-07-30T10:10:31;99401.78;;;21.14;59.26
52855;BME280;38719;51.418;7.286;2023-07-30T10:13:01;99394.31;;;21.26;57.65
52855;BME280;38719;51.418;7.286;2023-07-30T10:15:33;99394.31;;;21.44;58.15
52855;BME280;38719;51.418;7.286;2023-07-30T10:18:01;99403.38;;;21.53;58.10
52855;BME280;38719;51.418;7.286;2023-07-30T10:20:31;99398.88;;;21.89;57.73
52855;BME280;38719;51.418;7.286;2023-07-30T10:23:01;99391.28;;;21.93;56.67
52855;BME280;38719;51.418;7.286;2023-07-30T10:25:30;99397.31;;;21.69;56.61
52855;BME280;38719;51.418;7.286;2023-07-30T10:28:09;99392.72;;;21.51;55.48
52855;BME280;38719;51.418;7.286;2023-07-30T10:30:36;99396.72;;;21.57;56.28
52855;BME280;38719;51.418;7.286;2023-07-30T10:33:06;99393.28;;;21.73;55.42
52855;BME280;38719;51.418;7.286;2023-07-30T10:35:41;99392.38;;;21.82;55.34
52855;BME280;38719;51.418;7.286;2023-07-30T10:38:15;99396.19;;;21.98;55.34
52855;BME280;38719;51.418;7.286;2023-07-30T10:40:59;99391.16;;;22.21;53.75
52855;BME280;38719;51.418;7.286;2023-07-30T10:43:28;99400.19;;;22.30;53.93
52855;BME280;38719;51.418;7.286;2023-07-30T10:45:56;99394.31;;;22.16;53.64
52855;BME280;38719;51.418;7.286;2023-07-30T10:48:31;99400.69;;;22.07;53.95
52855;BME280;38719;51.418;7.286;2023-07-30T10:51:01;99388.69;;;22.10;54.20
52855;BME280;38719;51.418;7.286;2023-07-30T10:53:31;99401.16;;;22.02;54.59
52855;BME280;38719;51.418;7.286;2023-07-30T10:55:59;99400.50;;;21.82;54.68
52855;BME280;38719;51.418;7.286;2023-07-30T10:58:30;99400.94;;;21.78;53.68
52855;BME280;38719;51.418;7.286;2023-07-30T11:00:59;99408.91;;;21.79;54.37
52855;BME280;38719;51.418;7.286;2023-07-30T11:03:28;99405.09;;;21.54;55.21
52855;BME280;38719;51.418;7.286;2023-07-30T11:05:58;99411.31;;;21.64;55.17
52855;BME280;38719;51.418;7.286;2023-07-30T11:08:33;99409.66;;;21.53;55.29
52855;BME280;38719;51.418;7.286;2023-07-30T11:11:03;99407.25;;;21.50;54.58
52855;BME280;38719;51.418;7.286;2023-07-30T11:13:35;99408.13;;;21.23;54.89
52855;BME280;38719;51.418;7.286;2023-07-30T11:16:04;99403.84;;;21.48;54.53
52855;BME280;38719;51.418;7.286;2023-07-30T11:18:32;99406.03;;;21.99;55.43
52855;BME280;38719;51.418;7.286;2023-07-30T11:21:04;99401.31;;;22.19;54.29
52855;BME280;38719;51.418;7.286;2023-07-30T11:23:34;99397.25;;;22.41;53.48
52855;BME280;38719;51.418;7.286;2023-07-30T11:26:03;99402.09;;;22.56;52.84
52855;BME280;38719;51.418;7.286;2023-07-30T11:28:32;99405.88;;;22.63;51.85
52855;BME280;38719;51.418;7.286;2023-07-30T11:31:05;99403.41;;;22.78;51.24
52855;BME280;38719;51.418;7.286;2023-07-30T11:33:35;99408.59;;;22.63;51.53
52855;BME280;38719;51.418;7.286;2023-07-30T11:36:04;99397.78;;;22.45;50.52
52855;BME280;38719;51.418;7.286;2023-07-30T11:38:34;99406.31;;;22.32;51.48
52855;BME280;38719;51.418;7.286;2023-07-30T11:41:02;99414.44;;;22.32;51.97
52855;BME280;38719;51.418;7.286;2023-07-30T11:43:30;99412.03;;;22.29;51.69
52855;BME280;38719;51.418;7.286;2023-07-30T11:46:09;99409.44;;;22.19;53.80
52855;BME280;38719;51.418;7.286;2023-07-30T11:48:36;99413.41;;;22.51;52.53
52855;BME280;38719;51.418;7.286;2023-07-30T11:51:04;99413.53;;;22.67;51.73
52855;BME280;38719;51.418;7.286;2023-07-30T11:53:47;99407.84;;;22.52;51.94
52855;BME280;38719;51.418;7.286;2023-07-30T11:56:23;99401.91;;;22.57;52.39
52855;BME280;38719;51.418;7.286;2023-07-30T11:58:53;99399.88;;;22.33;51.62
52855;BME280;38719;51.418;7.286;2023-07-30T12:01:23;99392.22;;;22.46;51.00
52855;BME280;38719;51.418;7.286;2023-07-30T12:03:54;99404.06;;;22.45;51.15
52855;BME280;38719;51.418;7.286;2023-07-30T12:06:22;99402.38;;;22.44;52.17
52855;BME280;38719;51.418;7.286;2023-07-30T12:08:51;99403.63;;;22.58;50.82
52855;BME280;38719;51.418;7.286;2023-07-30T12:11:19;99394.69;;;22.40;51.19
52855;BME280;38719;51.418;7.286;2023-07-30T12:13:47;99387.22;;;22.15;51.51
52855;BME280;38719;51.418;7.286;2023-07-30T12:16:26;99388.25;;;22.22;51.34
52855;BME280;38719;51.418;7.286;2023-07-30T12:18:54;99398.88;;;22.34;50.90
52855;BME280;38719;51.418;7.286;2023-07-30T12:21:21;99397.56;;;22.64;51.66
52855;BME280;38719;51.418;7.286;2023-07-30T12:23:49;99396.00;;;22.53;50.35
52855;BME280;38719;51.418;7.286;2023-07-30T12:26:17;99392.41;;;22.35;50.73
52855;BME280;38719;51.418;7.286;2023-07-30T12:28:44;99398.19;;;22.50;50.87
52855;BME280;38719;51.418;7.286;2023-07-30T12:31:12;99402.34;;;22.97;49.89
52855;BME280;38719;51.418;7.286;2023-07-30T12:33:41;99400.91;;;23.19;49.43
52855;BME280;38719;51.418;7.286;2023-07-30T12:36:09;99402.28;;;23.31;50.36
52855;BME280;38719;51.418;7.286;2023-07-30T12:38:36;99408.91;;;23.29;49.59
52855;BME280;38719;51.418;7.286;2023-07-30T12:41:04;99411.34;;;23.48;48.47
52855;BME280;38719;51.418;7.286;2023-07-30T12:43:31;99408.00;;;23.71;48.36
52855;BME280;38719;51.418;7.286;2023-07-30T12:45:59;99429.38;;;23.66;49.66
52855;BME280;38719;51.418;7.286;2023-07-30T12:48:27;99410.22;;;23.67;47.39
52855;BME280;38719;51.418;7.286;2023-07-30T12:50:56;99413.88;;;23.42;48.17
52855;BME280;38719;51.418;7.286;2023-07-30T12:53:24;99404.63;;;23.77;47.31
52855;BME280;38719;51.418;7.286;2023-07-30T12:55:52;99405.25;;;23.55;47.71
52855;BME280;38719;51.418;7.286;2023-07-30T12:58:19;99412.19;;;23.41;48.12
52855;BME280;38719;51.418;7.286;2023-07-30T13:00:47;99405.38;;;23.37;48.82
52855;BME280;38719;51.418;7.286;2023-07-30T13:03:14;99416.16;;;23.71;48.81
52855;BME280;38719;51.418;7.286;2023-07-30T13:05:42;99405.78;;;23.66;47.51